East Pine, Canada
Current Conditions -  °F | °C
As of 7:00 PM on Wednesday 22 Oct 2014 (Local Time) from CYCQ Reporting Station
Few Clouds Few Clouds  
Wind Chill: 46°   Ceiling: Unl
Heat Index: 48°   Visibility: 35mi
Dew Point: 30°   Wind: 6mph
Humidity: 50%   Direction: 210°SSW
Pressure: 29.51"   Gusts: NA
Location:  55.72°N, 121.18°W
Report Text: CYCQ 230100Z 21005KT 35SM FEW050 FEW120 09/M01 A2951 RMK SF1AC1 SF TR AC TR LAST OBS/NEXT 231300Z SLP013 DENSITY ALT 2200FT
Loading
Personal Weather Stations






























Interactive Weather Map
Tropical Storm Tracking
New forecast layout! Learn more

10-Day Weather Forecast

Advertisements
Track Severe Weather on mobile